Bornem, Belgium
Current Conditions -  °F | °C
As of 8:20 PM on Tuesday 21 Oct 2014 (Local Time) from EBAW Reporting Station
Scattered Clouds Scattered Clouds  
Wind Chill: 52°   Ceiling: Unl
Heat Index: 52°   Visibility: 6mi
Dew Point: 41°   Wind: 12mph
Humidity: 67%   Direction: 280°W
Pressure: 29.74"   Gusts: NA
Location:  51.1°N, 4.24°E
Report Text: EBAW 211820Z 28010KT 9999 FEW038CB SCT044 11/05 Q1007 TEMPO 28020G35KT 4000 SHRA
Loading
Personal Weather Stations






























Interactive Weather Map
Tropical Storm Tracking
New forecast layout! Learn more

10-Day Weather Forecast

Advertisements
Track Severe Weather on mobile